Time;durP1;ratioP1;P1;durP2;ratioP2;P2;SDS_P1;SDS_P2;PMS_P1;PMS_P2;Temp;Humidity;BMP_temperature;BMP_pressure;BME280_temperature;BME280_humidity;BME280_pressure;Samples;Min_cycle;Max_cycle;Signal;HPM_P1;HPM_P2
2022/04/27 00:01:46;;;;;;;69.90;36.60;;;11.00;99.90;;;;;;5073542;28;20081;-55
2022/04/27 00:04:12;;;;;;;69.60;37.03;;;10.90;99.90;;;;;;5073831;28;20115;-55
2022/04/27 00:06:38;;;;;;;49.80;25.50;;;10.90;99.90;;;;;;5073680;28;20029;-55
2022/04/27 00:09:05;;;;;;;51.90;26.77;;;10.80;99.90;;;;;;5073815;28;20033;-55
2022/04/27 00:11:30;;;;;;;55.88;28.63;;;10.70;99.90;;;;;;5073868;28;20068;-55
2022/04/27 00:13:58;;;;;;;63.08;32.67;;;10.60;99.90;;;;;;5073537;28;20024;-55
2022/04/27 00:16:24;;;;;;;67.03;33.17;;;10.60;99.90;;;;;;5073974;28;20446;-55
2022/04/27 00:18:50;;;;;;;61.88;30.25;;;10.60;99.90;;;;;;5073641;28;20020;-55
2022/04/27 00:21:17;;;;;;;55.10;31.58;;;10.60;99.90;;;;;;5073577;28;20048;-55
2022/04/27 00:23:43;;;;;;;56.53;30.67;;;10.50;99.90;;;;;;5073495;28;20462;-55
2022/04/27 00:26:09;;;;;;;64.43;33.17;;;10.50;99.90;;;;;;5073755;28;20066;-55
2022/04/27 00:28:36;;;;;;;62.28;31.33;;;10.40;99.90;;;;;;5073881;28;20037;-55
2022/04/27 00:31:02;;;;;;;68.15;32.45;;;10.40;99.90;;;;;;5073609;28;20024;-55
2022/04/27 00:33:28;;;;;;;64.30;33.85;;;10.40;99.90;;;;;;5073706;28;20016;-56
2022/04/27 00:35:54;;;;;;;60.65;30.92;;;10.40;99.90;;;;;;5073531;28;20493;-55
2022/04/27 00:38:20;;;;;;;58.90;31.50;;;10.40;99.90;;;;;;5073532;28;20032;-55
2022/04/27 00:40:46;;;;;;;55.95;30.65;;;10.30;99.90;;;;;;5073500;28;20035;-55
2022/04/27 00:43:15;;;;;;;59.15;31.40;;;10.30;99.90;;;;;;5073739;28;20025;-55
2022/04/27 00:45:42;;;;;;;63.67;30.92;;;10.30;99.90;;;;;;5073433;28;20028;-55
2022/04/27 00:48:09;;;;;;;67.20;34.95;;;10.20;99.90;;;;;;5075389;28;20035;-55
2022/04/27 00:50:36;;;;;;;62.42;32.10;;;10.20;99.90;;;;;;5077290;28;20052;-55
2022/04/27 00:53:02;;;;;;;57.38;31.85;;;10.20;99.90;;;;;;5059154;28;20498;-55
2022/04/27 00:55:30;;;;;;;58.63;31.52;;;10.10;99.90;;;;;;5077206;28;20033;-55
2022/04/27 00:57:56;;;;;;;64.07;32.85;;;10.10;99.90;;;;;;5059157;28;20070;-57
2022/04/27 01:00:23;;;;;;;57.75;31.45;;;10.00;99.90;;;;;;5077095;28;20058;-55
2022/04/27 01:02:49;;;;;;;58.17;31.88;;;10.00;99.90;;;;;;5076883;28;20446;-55
2022/04/27 01:05:16;;;;;;;61.08;30.67;;;9.90;99.90;;;;;;5077190;28;20082;-55
2022/04/27 01:07:42;;;;;;;63.75;32.95;;;9.90;99.90;;;;;;5076867;28;20035;-55
2022/04/27 01:10:10;;;;;;;61.80;32.55;;;9.80;99.90;;;;;;5076841;28;20085;-55
2022/04/27 01:12:40;;;;;;;61.13;32.15;;;9.80;99.90;;;;;;5076758;28;20066;-55
2022/04/27 01:15:13;;;;;;;63.88;31.70;;;9.80;99.90;;;;;;5058958;28;20024;-55
2022/04/27 01:17:39;;;;;;;65.65;32.60;;;9.80;99.90;;;;;;5058618;28;20047;-55
2022/04/27 01:20:06;;;;;;;61.08;31.40;;;9.70;99.90;;;;;;5058607;28;20028;-55
2022/04/27 01:22:32;;;;;;;62.72;29.85;;;9.70;99.90;;;;;;5058663;28;20075;-55
2022/04/27 01:24:58;;;;;;;55.03;29.45;;;9.60;99.90;;;;;;5058482;28;20040;-55
2022/04/27 01:27:24;;;;;;;50.75;27.60;;;9.60;99.90;;;;;;5075437;28;20029;-55
2022/04/27 01:29:50;;;;;;;51.40;27.88;;;9.60;99.90;;;;;;5076316;28;20046;-55
2022/04/27 01:32:16;;;;;;;59.75;29.13;;;9.50;99.90;;;;;;5075276;28;20038;-56
2022/04/27 01:34:43;;;;;;;54.45;28.27;;;9.50;99.90;;;;;;5076334;28;20533;-55
2022/04/27 01:39:53;;;;;;;49.60;26.80;;;9.30;99.90;;;;;;5058526;28;20119;-55
2022/04/27 01:42:19;;;;;;;53.63;30.00;;;9.30;99.90;;;;;;5076548;28;20056;-55
2022/04/27 01:44:46;;;;;;;61.97;29.90;;;9.30;99.90;;;;;;5076220;28;20020;-55
2022/04/27 01:47:12;;;;;;;58.05;29.02;;;9.40;99.90;;;;;;5076238;28;20032;-55
2022/04/27 01:49:38;;;;;;;50.95;26.85;;;9.40;99.90;;;;;;5076198;28;20041;-56
2022/04/27 01:54:49;;;;;;;50.28;25.05;;;9.40;99.90;;;;;;5058052;28;20052;-55
2022/04/27 01:57:15;;;;;;;47.03;26.08;;;9.50;99.90;;;;;;5076341;28;20059;-55
2022/04/27 01:59:41;;;;;;;52.72;26.95;;;9.50;99.90;;;;;;5057457;28;20028;-55
2022/04/27 02:02:09;;;;;;;48.90;25.60;;;9.40;99.90;;;;;;5058123;28;20516;-55
2022/04/27 02:04:36;;;;;;;42.38;23.88;;;9.30;99.90;;;;;;5058057;28;20036;-55
2022/04/27 02:07:04;;;;;;;41.55;22.42;;;9.30;99.90;;;;;;5057810;28;20498;-55
2022/04/27 02:09:30;;;;;;;41.65;23.25;;;9.20;99.90;;;;;;5057924;28;20029;-55
2022/04/27 02:11:56;;;;;;;43.45;23.58;;;9.20;99.90;;;;;;5074306;28;20032;-55
2022/04/27 02:14:22;;;;;;;38.42;22.27;;;9.20;99.90;;;;;;5057796;28;20020;-55
2022/04/27 02:16:50;;;;;;;48.65;24.00;;;9.10;99.90;;;;;;5057782;28;20033;-55
2022/04/27 02:19:17;;;;;;;40.28;23.45;;;9.20;99.90;;;;;;5058117;28;20036;-55
2022/04/27 02:21:47;;;;;;;46.20;24.02;;;9.20;99.90;;;;;;5057279;28;20048;-55
2022/04/27 02:24:16;;;;;;;38.83;22.48;;;9.10;99.90;;;;;;5057707;28;20033;-55
2022/04/27 02:26:45;;;;;;;37.97;22.70;;;9.20;99.90;;;;;;5075435;28;20035;-55
2022/04/27 02:29:11;;;;;;;40.80;22.55;;;9.20;99.90;;;;;;5057508;28;20513;-55
2022/04/27 02:31:37;;;;;;;36.97;21.25;;;9.20;99.90;;;;;;5057478;28;20111;-55
2022/04/27 02:34:03;;;;;;;40.22;22.15;;;9.20;99.90;;;;;;5057469;28;20119;-55
2022/04/27 02:36:30;;;;;;;38.50;21.95;;;9.20;99.90;;;;;;5057446;28;20032;-55
2022/04/27 02:38:57;;;;;;;38.97;21.20;;;9.20;99.90;;;;;;5057355;28;20029;-55
2022/04/27 02:41:23;;;;;;;34.60;19.45;;;9.20;99.90;;;;;;5057268;28;20032;-55
2022/04/27 02:43:49;;;;;;;32.00;19.15;;;9.20;99.90;;;;;;5074983;28;20048;-56
2022/04/27 02:46:18;;;;;;;33.92;18.80;;;9.20;99.90;;;;;;5057322;28;20029;-55
2022/04/27 02:51:48;;;;;;;34.35;19.40;;;9.20;99.90;;;;;;5074814;28;20020;-55
2022/04/27 02:51:51;;;;;;;49.38;23.95;;;9.30;99.90;;;;;;5057011;28;20063;-55
2022/04/27 02:54:38;;;;;;;50.08;24.63;;;9.30;99.90;;;;;;5057065;28;20457;-55
2022/04/27 02:57:05;;;;;;;46.78;25.45;;;9.30;99.90;;;;;;5075075;28;20056;-55
2022/04/27 02:59:31;;;;;;;51.17;23.92;;;9.20;99.90;;;;;;5044035;28;20056;-55
2022/04/27 03:01:58;;;;;;;46.80;23.35;;;9.20;99.90;;;;;;5017543;28;20147;-56
2022/04/27 03:04:24;;;;;;;43.90;22.42;;;9.20;99.90;;;;;;5028579;28;20153;-56
2022/04/27 03:06:50;;;;;;;44.47;22.30;;;9.10;99.90;;;;;;5024900;28;20475;-55
2022/04/27 03:09:16;;;;;;;42.75;21.55;;;9.10;99.90;;;;;;5027956;28;20506;-55
2022/04/27 03:11:44;;;;;;;40.40;21.25;;;9.10;99.90;;;;;;5026340;28;20079;-55
2022/04/27 03:14:20;;;;;;;34.28;19.52;;;9.10;99.90;;;;;;5019783;28;20025;-55
2022/04/27 03:16:48;;;;;;;41.40;20.38;;;9.10;99.90;;;;;;5024605;28;20032;-55
2022/04/27 03:19:14;;;;;;;32.75;18.30;;;9.00;99.90;;;;;;5039334;28;20438;-55
2022/04/27 03:21:40;;;;;;;35.58;18.77;;;8.90;99.90;;;;;;5044191;28;20040;-55
2022/04/27 03:24:06;;;;;;;33.20;19.25;;;9.00;99.90;;;;;;5056388;28;20063;-55
2022/04/27 03:26:32;;;;;;;36.03;17.42;;;8.90;99.90;;;;;;5056566;28;20040;-55
2022/04/27 03:28:59;;;;;;;26.65;14.77;;;8.90;99.90;;;;;;5074243;28;20113;-55
2022/04/27 03:31:26;;;;;;;32.05;16.50;;;8.80;99.90;;;;;;5056460;28;20037;-55
2022/04/27 03:33:53;;;;;;;31.52;16.92;;;8.70;99.90;;;;;;5074180;28;20035;-55
2022/04/27 03:36:18;;;;;;;28.90;15.75;;;8.70;99.90;;;;;;5056220;28;20025;-55
2022/04/27 03:38:48;;;;;;;29.27;16.13;;;8.70;99.90;;;;;;5072742;28;20401;-55
2022/04/27 03:41:19;;;;;;;28.10;15.73;;;8.70;99.90;;;;;;5056281;28;20024;-56
2022/04/27 03:43:47;;;;;;;20.88;13.27;;;8.60;99.90;;;;;;5056087;28;20048;-55
2022/04/27 03:46:14;;;;;;;23.60;13.82;;;8.60;99.90;;;;;;5056186;28;20031;-55
2022/04/27 03:48:40;;;;;;;25.60;13.80;;;8.60;99.90;;;;;;5072663;28;20032;-55
2022/04/27 03:51:07;;;;;;;20.70;12.82;;;8.60;99.90;;;;;;5072768;28;20116;-56
2022/04/27 03:53:34;;;;;;;19.48;12.50;;;8.60;99.90;;;;;;5056085;28;20025;-55
2022/04/27 03:56:00;;;;;;;19.83;12.05;;;8.60;99.90;;;;;;5055883;28;20098;-55
2022/04/27 03:58:27;;;;;;;19.35;11.40;;;8.60;99.90;;;;;;5056004;28;20024;-55
2022/04/27 04:00:54;;;;;;;26.08;13.40;;;8.50;99.90;;;;;;5055719;28;20063;-55
2022/04/27 04:03:22;;;;;;;27.85;13.45;;;8.50;99.90;;;;;;5056054;28;20501;-55
2022/04/27 04:05:48;;;;;;;21.60;12.75;;;8.50;99.90;;;;;;5055704;28;20029;-55
2022/04/27 04:08:14;;;;;;;21.40;13.13;;;8.50;99.90;;;;;;5073846;28;20032;-55
2022/04/27 04:10:40;;;;;;;20.08;12.98;;;8.50;99.90;;;;;;5055722;28;20608;-56
2022/04/27 04:13:07;;;;;;;26.23;15.80;;;8.50;99.90;;;;;;5072556;28;20032;-55
2022/04/27 04:15:52;;;;;;;26.42;14.35;;;8.60;99.90;;;;;;5073970;28;20039;-55
2022/04/27 04:18:52;;;;;;;25.90;14.13;;;8.60;99.90;;;;;;5055917;28;20419;-55
2022/04/27 04:21:27;;;;;;;24.88;14.32;;;8.60;99.90;;;;;;5056519;28;20444;-55
2022/04/27 04:24:02;;;;;;;34.00;14.40;;;8.70;99.90;;;;;;5077830;28;20047;-55
2022/04/27 04:29:16;;;;;;;23.92;13.07;;;8.80;99.90;;;;;;5059608;28;20036;-56
2022/04/27 04:31:42;;;;;;;25.35;13.88;;;8.80;99.90;;;;;;5076447;28;20025;-55
2022/04/27 04:34:36;;;;;;;21.98;13.38;;;8.80;99.90;;;;;;5059475;28;20111;-55
2022/04/27 04:37:03;;;;;;;24.95;14.75;;;8.80;99.90;;;;;;5076118;28;20486;-55
2022/04/27 04:39:30;;;;;;;28.20;15.68;;;9.00;99.90;;;;;;5076368;28;20132;-55
2022/04/27 04:41:56;;;;;;;37.03;16.90;;;9.00;99.90;;;;;;5059283;28;20063;-56
2022/04/27 04:44:22;;;;;;;32.08;16.33;;;9.20;99.90;;;;;;5059460;28;20032;-56
2022/04/27 04:47:09;;;;;;;34.70;16.05;;;9.30;99.90;;;;;;5076994;28;20103;-55
2022/04/27 04:49:57;;;;;;;30.05;15.93;;;9.40;99.90;;;;;;5076375;28;20041;-55
2022/04/27 04:52:47;;;;;;;43.80;20.00;;;9.50;99.90;;;;;;5048000;28;20418;-56
2022/04/27 04:55:31;;;;;;;39.05;17.95;;;9.70;99.90;;;;;;5059445;28;20386;-55
2022/04/27 04:58:16;;;;;;;31.27;16.60;;;9.80;99.90;;;;;;5077237;28;20071;-56
2022/04/27 05:01:09;;;;;;;37.50;14.93;;;9.90;99.90;;;;;;5073789;28;20111;-56
2022/04/27 05:04:02;;;;;;;40.90;18.60;;;10.10;99.90;;;;;;5058827;28;20028;-56
2022/04/27 05:06:51;;;;;;;32.95;16.23;;;10.20;99.90;;;;;;5059077;28;20032;-56
2022/04/27 05:09:50;;;;;;;40.95;16.33;;;10.30;99.90;;;;;;5062114;28;20054;-56
2022/04/27 05:12:36;;;;;;;41.60;16.85;;;10.50;99.90;;;;;;5065216;28;20551;-56
2022/04/27 05:15:25;;;;;;;36.13;19.13;;;10.70;99.90;;;;;;5047775;28;20393;-56
2022/04/27 05:18:23;;;;;;;30.58;17.08;;;10.80;99.90;;;;;;5062764;28;20033;-56
2022/04/27 05:21:07;;;;;;;37.78;15.35;;;11.00;99.90;;;;;;5068286;28;20119;-56
2022/04/27 05:23:51;;;;;;;37.92;16.65;;;11.20;99.90;;;;;;5062336;28;20044;-56
2022/04/27 05:26:37;;;;;;;37.70;15.57;;;11.50;99.90;;;;;;5071607;28;20035;-56
2022/04/27 05:32:42;;;;;;;29.83;15.02;;;11.80;99.90;;;;;;4994454;28;20038;-56
2022/04/27 05:35:27;;;;;;;30.67;15.45;;;12.00;99.90;;;;;;5054598;28;20036;-56
2022/04/27 05:38:05;;;;;;;36.95;15.75;;;12.30;99.90;;;;;;5038121;28;20481;-56
2022/04/27 05:40:52;;;;;;;37.45;16.08;;;12.40;99.90;;;;;;5056460;28;20449;-56
2022/04/27 05:43:41;;;;;;;41.03;16.52;;;12.60;99.90;;;;;;5054865;28;20037;-56
2022/04/27 05:46:27;;;;;;;45.55;17.23;;;12.70;99.90;;;;;;5055729;28;20037;-56
2022/04/27 05:49:09;;;;;;;58.72;25.38;;;12.70;99.90;;;;;;5037969;28;20099;-56
2022/04/27 05:51:50;;;;;;;37.45;17.50;;;12.70;99.90;;;;;;5060800;28;20048;-56
2022/04/27 05:54:24;;;;;;;34.65;16.95;;;12.70;99.90;;;;;;5057690;28;20041;-56
2022/04/27 05:56:50;;;;;;;32.33;16.08;;;12.70;99.90;;;;;;5062539;28;20546;-56
2022/04/27 05:59:52;;;;;;;43.30;17.63;;;12.90;99.90;;;;;;5013631;28;20042;-56
2022/04/27 06:02:44;;;;;;;38.78;16.55;;;13.20;99.90;;;;;;5066792;28;20044;-56
2022/04/27 06:05:13;;;;;;;27.20;14.70;;;13.50;99.90;;;;;;5057665;28;20028;-56
2022/04/27 06:07:40;;;;;;;39.83;15.98;;;13.70;99.90;;;;;;5057500;28;20098;-56
2022/04/27 06:10:10;;;;;;;25.50;14.90;;;13.90;99.90;;;;;;5057241;28;20024;-56
2022/04/27 06:12:46;;;;;;;31.50;15.73;;;14.10;99.90;;;;;;5057833;28;20052;-56
2022/04/27 06:15:31;;;;;;;33.70;16.08;;;14.30;99.90;;;;;;5075470;28;20062;-56
2022/04/27 06:18:01;;;;;;;39.72;17.40;;;14.60;99.90;;;;;;5057590;28;20401;-56
2022/04/27 06:20:28;;;;;;;28.10;15.13;;;14.80;99.90;;;;;;5045938;28;20060;-56
2022/04/27 06:22:56;;;;;;;34.20;17.15;;;14.80;99.90;;;;;;5089375;28;20051;-56
2022/04/27 06:25:25;;;;;;;34.25;15.63;;;15.00;99.90;;;;;;5056680;28;20032;-56
2022/04/27 06:28:08;;;;;;;36.63;17.85;;;15.20;99.90;;;;;;5075251;28;20068;-56
2022/04/27 06:30:35;;;;;;;43.05;19.48;;;15.40;99.90;;;;;;5053822;28;20033;-56
2022/04/27 06:33:02;;;;;;;38.20;17.08;;;15.50;99.90;;;;;;5037638;28;20102;-56
2022/04/27 06:35:28;;;;;;;38.20;16.30;;;15.60;99.90;;;;;;5037525;28;20036;-56
2022/04/27 06:38:00;;;;;;;39.38;16.85;;;15.80;99.90;;;;;;5037301;28;20025;-56
2022/04/27 06:40:27;;;;;;;49.47;17.95;;;15.90;99.90;;;;;;5046823;28;20072;-56
2022/04/27 06:42:53;;;;;;;50.47;18.00;;;16.20;99.90;;;;;;5063829;28;20108;-56
2022/04/27 06:45:38;;;;;;;59.10;19.90;;;16.30;99.90;;;;;;5054142;28;20123;-56
2022/04/27 06:48:30;;;;;;;49.63;17.42;;;16.50;99.90;;;;;;5057289;28;20098;-56
2022/04/27 06:51:22;;;;;;;45.33;16.10;;;16.70;99.90;;;;;;5072986;28;20043;-56
2022/04/27 06:54:07;;;;;;;37.03;15.80;;;16.60;99.90;;;;;;5076767;28;20192;-56
2022/04/27 06:57:06;;;;;;;32.03;14.10;;;16.90;99.90;;;;;;5042346;28;20413;-57
2022/04/27 07:00:03;;;;;;;28.83;14.18;;;17.20;99.90;;;;;;5055400;28;20020;-57
2022/04/27 07:02:37;;;;;;;30.35;13.30;;;17.50;99.90;;;;;;5069497;28;20067;-56
2022/04/27 07:05:05;;;;;;;27.48;13.02;;;17.60;99.90;;;;;;5069511;28;20032;-56
2022/04/27 07:07:37;;;;;;;29.42;12.30;;;17.60;99.90;;;;;;5050693;28;20106;-56
2022/04/27 07:10:04;;;;;;;23.98;12.02;;;17.80;99.90;;;;;;5081696;28;20036;-56
2022/04/27 07:12:30;;;;;;;22.45;12.43;;;17.70;99.90;;;;;;5070951;28;20028;-56
2022/04/27 07:14:56;;;;;;;25.88;10.82;;;17.80;99.90;;;;;;5078362;28;20028;-56
2022/04/27 07:17:27;;;;;;;22.92;12.63;;;18.00;99.90;;;;;;5090994;27;20377;-56
2022/04/27 07:19:53;;;;;;;18.80;10.00;;;18.20;99.90;;;;;;5052087;28;20123;-56
2022/04/27 07:22:19;;;;;;;24.17;10.23;;;18.40;99.90;;;;;;5051835;28;20021;-56
2022/04/27 07:24:45;;;;;;;23.95;11.02;;;18.40;99.90;;;;;;5052104;28;20044;-56
2022/04/27 07:27:11;;;;;;;18.40;10.48;;;18.40;99.90;;;;;;5052067;28;20035;-56
2022/04/27 07:29:37;;;;;;;24.48;12.73;;;18.50;99.90;;;;;;5050213;28;20439;-56
2022/04/27 07:32:04;;;;;;;23.55;13.48;;;18.60;99.90;;;;;;5050474;28;20083;-56
2022/04/27 07:34:31;;;;;;;31.85;13.98;;;18.90;99.90;;;;;;5050694;28;20170;-56
2022/04/27 07:36:58;;;;;;;30.60;14.52;;;19.30;99.90;;;;;;5046959;28;20029;-56
2022/04/27 07:39:24;;;;;;;24.08;12.85;;;19.40;99.90;;;;;;5051572;28;20040;-56
2022/04/27 07:41:54;;;;;;;22.60;12.30;;;19.50;99.90;;;;;;5051080;28;20020;-56
2022/04/27 07:44:20;;;;;;;23.98;13.82;;;19.60;98.70;;;;;;5051061;28;20505;-56
2022/04/27 07:46:48;;;;;;;26.58;14.98;;;19.60;99.90;;;;;;5050894;28;20029;-56
2022/04/27 07:49:19;;;;;;;22.92;13.00;;;19.80;99.90;;;;;;5050054;28;20497;-56
2022/04/27 07:51:47;;;;;;;27.85;13.93;;;20.20;99.90;;;;;;5049999;28;20037;-56
2022/04/27 07:54:13;;;;;;;25.55;13.88;;;20.70;97.50;;;;;;5045614;28;20454;-56
2022/04/27 07:56:39;;;;;;;28.15;14.80;;;20.90;97.60;;;;;;5050963;28;20505;-56
2022/04/27 07:59:05;;;;;;;35.88;17.05;;;21.00;97.20;;;;;;5050962;28;20082;-56
2022/04/27 08:01:33;;;;;;;32.70;18.13;;;21.10;94.70;;;;;;5050803;28;20025;-56
2022/04/27 08:03:59;;;;;;;35.97;18.67;;;20.70;92.10;;;;;;5049469;28;20022;-56
2022/04/27 08:06:25;;;;;;;46.35;21.83;;;20.60;93.20;;;;;;5048937;28;20025;-56
2022/04/27 08:08:51;;;;;;;47.22;20.65;;;20.80;91.90;;;;;;5049041;28;20033;-56
2022/04/27 08:11:17;;;;;;;51.22;25.02;;;21.00;94.80;;;;;;5047573;28;20025;-56
2022/04/27 08:13:44;;;;;;;55.90;26.83;;;21.50;94.00;;;;;;5047877;28;20708;-56
2022/04/27 08:16:11;;;;;;;43.00;21.35;;;21.50;86.50;;;;;;5049343;28;20047;-56
2022/04/27 08:18:39;;;;;;;51.33;22.67;;;22.00;79.90;;;;;;5047549;28;20278;-56
2022/04/27 08:21:14;;;;;;;43.70;22.20;;;21.90;90.70;;;;;;5049078;28;20101;-56
2022/04/27 08:23:48;;;;;;;37.50;19.30;;;22.00;83.20;;;;;;5048719;28;20455;-56
2022/04/27 08:26:16;;;;;;;39.78;18.45;;;22.00;77.20;;;;;;5046971;28;20028;-56
2022/04/27 08:28:42;;;;;;;44.53;17.60;;;22.30;77.70;;;;;;5034998;28;20033;-56
2022/04/27 08:31:11;;;;;;;32.08;15.32;;;22.30;79.20;;;;;;5036450;28;20025;-57
2022/04/27 08:33:37;;;;;;;38.13;18.17;;;22.20;70.30;;;;;;5033808;28;20025;-57
2022/04/27 08:36:03;;;;;;;49.05;18.83;;;21.90;81.20;;;;;;5033980;28;20029;-56
2022/04/27 08:38:30;;;;;;;40.15;19.95;;;22.10;75.60;;;;;;5034294;28;20017;-56
2022/04/27 08:41:00;;;;;;;38.72;16.70;;;22.60;77.30;;;;;;5037125;28;20021;-56
2022/04/27 08:43:26;;;;;;;34.75;18.45;;;22.90;65.10;;;;;;5035797;28;20030;-56
2022/04/27 08:45:55;;;;;;;33.88;15.73;;;22.80;63.70;;;;;;5032358;28;20068;-56
2022/04/27 08:48:22;;;;;;;33.53;15.77;;;22.20;68.20;;;;;;5036490;28;20732;-56
2022/04/27 08:50:49;;;;;;;29.25;13.88;;;22.70;69.20;;;;;;5036140;28;20319;-56
2022/04/27 08:53:15;;;;;;;31.85;13.27;;;22.80;75.00;;;;;;5035802;28;20021;-56
2022/04/27 08:55:41;;;;;;;33.42;12.32;;;22.90;61.50;;;;;;5035882;28;20471;-56
2022/04/27 08:58:08;;;;;;;32.58;13.30;;;23.10;63.90;;;;;;5036071;28;20021;-56
2022/04/27 09:00:37;;;;;;;21.33;10.02;;;23.60;69.70;;;;;;5033890;28;20042;-56
2022/04/27 09:03:21;;;;;;;21.65;9.93;;;23.40;61.10;;;;;;5033476;28;20495;-57
2022/04/27 09:05:53;;;;;;;27.63;10.40;;;23.60;66.00;;;;;;5033329;28;20490;-56
2022/04/27 09:08:19;;;;;;;18.35;8.43;;;23.40;65.20;;;;;;5034059;28;20442;-56
2022/04/27 09:10:46;;;;;;;25.10;10.18;;;23.80;61.80;;;;;;5033755;28;20025;-56
2022/04/27 09:13:12;;;;;;;30.25;10.60;;;23.80;62.50;;;;;;5034295;28;20037;-56
2022/04/27 09:15:39;;;;;;;16.73;7.95;;;24.20;58.70;;;;;;5034340;28;20065;-57
2022/04/27 09:21:03;;;;;;;22.38;9.30;;;24.90;58.50;;;;;;5033496;28;20518;-57
2022/04/27 09:23:45;;;;;;;24.38;8.85;;;25.50;56.40;;;;;;5035967;28;20076;-57
2022/04/27 09:26:15;;;;;;;20.00;7.63;;;25.50;52.80;;;;;;5035893;28;20505;-57
2022/04/27 09:28:46;;;;;;;15.93;7.47;;;25.50;52.30;;;;;;5034488;28;20067;-57
2022/04/27 09:31:28;;;;;;;17.05;8.65;;;25.50;50.10;;;;;;5035747;28;20021;-57
2022/04/27 09:34:27;;;;;;;15.45;7.70;;;25.30;51.00;;;;;;5034682;28;20021;-56
2022/04/27 09:37:13;;;;;;;25.45;9.20;;;25.60;55.50;;;;;;5029026;28;20041;-57
2022/04/27 09:39:40;;;;;;;13.32;7.15;;;26.20;51.30;;;;;;5027252;28;20034;-56
2022/04/27 09:42:08;;;;;;;20.48;8.23;;;26.30;48.80;;;;;;5031360;28;20029;-56
2022/04/27 09:44:37;;;;;;;21.40;8.45;;;26.30;45.60;;;;;;5034764;28;20112;-57
2022/04/27 09:47:04;;;;;;;16.42;7.13;;;26.50;47.80;;;;;;5032689;28;20467;-57
2022/04/27 09:49:39;;;;;;;12.57;6.38;;;26.30;48.40;;;;;;5035870;28;20045;-57
2022/04/27 09:52:07;;;;;;;12.32;5.97;;;26.20;49.10;;;;;;5035677;28;20503;-56
2022/04/27 09:54:36;;;;;;;20.27;6.47;;;26.40;48.40;;;;;;5034267;28;20037;-57
2022/04/27 09:57:08;;;;;;;18.90;7.25;;;26.70;45.90;;;;;;5024781;28;20561;-57
2022/04/27 09:59:36;;;;;;;9.07;5.28;;;27.10;43.60;;;;;;5029851;28;20026;-57
2022/04/27 10:02:07;;;;;;;11.07;5.60;;;27.20;45.50;;;;;;5033462;28;20025;-56
2022/04/27 10:04:35;;;;;;;14.00;5.13;;;27.40;43.10;;;;;;5034838;28;20026;-53
2022/04/27 10:07:03;;;;;;;18.77;4.43;;;27.00;39.00;;;;;;5034454;28;20026;-53
2022/04/27 10:09:30;;;;;;;7.90;3.30;;;26.80;41.00;;;;;;5029759;28;20033;-53
2022/04/27 10:11:58;;;;;;;9.85;4.35;;;27.30;43.50;;;;;;5034391;28;20025;-53
2022/04/27 10:14:25;;;;;;;8.57;3.75;;;27.10;42.60;;;;;;5034444;28;20399;-53
2022/04/27 10:16:55;;;;;;;13.23;4.55;;;26.80;42.00;;;;;;5032626;28;20048;-53
2022/04/27 10:19:22;;;;;;;13.57;4.70;;;25.90;43.20;;;;;;5032626;28;20443;-53
2022/04/27 10:21:59;;;;;;;13.38;4.90;;;26.70;43.80;;;;;;5031998;28;20022;-53
2022/04/27 10:24:34;;;;;;;10.65;3.67;;;27.10;43.10;;;;;;5016754;28;20079;-53
2022/04/27 10:27:21;;;;;;;6.97;3.90;;;27.20;40.80;;;;;;5032226;28;20029;-53
2022/04/27 10:29:52;;;;;;;8.07;4.30;;;27.20;38.90;;;;;;5031436;28;20048;-53
2022/04/27 10:32:35;;;;;;;9.25;4.40;;;27.10;41.40;;;;;;5033958;28;20494;-53
2022/04/27 10:35:17;;;;;;;10.25;3.67;;;27.20;40.80;;;;;;5032980;28;20033;-53
2022/04/27 10:37:57;;;;;;;15.30;5.35;;;27.40;41.00;;;;;;5033688;28;20018;-53
2022/04/27 10:40:38;;;;;;;8.67;3.87;;;27.80;38.40;;;;;;5034269;28;20491;-53
2022/04/27 10:43:07;;;;;;;11.07;3.55;;;27.40;39.70;;;;;;5035036;28;20382;-53
2022/04/27 10:45:44;;;;;;;5.63;2.80;;;26.80;39.90;;;;;;5033266;28;20036;-53
2022/04/27 10:48:24;;;;;;;8.13;3.72;;;26.30;38.10;;;;;;5034644;28;20388;-53
2022/04/27 10:51:00;;;;;;;12.70;4.35;;;26.40;39.90;;;;;;5033829;28;20033;-53
2022/04/27 10:53:28;;;;;;;11.25;4.30;;;25.90;38.70;;;;;;5034320;28;20451;-53
2022/04/27 10:55:58;;;;;;;15.98;5.95;;;25.50;39.60;;;;;;5034692;28;20490;-53
2022/04/27 10:58:26;;;;;;;;;;;25.60;42.00;;;;;;5034760;28;20104;-53
2022/04/27 11:00:58;;;;;;;16.40;5.82;;;25.70;44.00;;;;;;5034153;28;20247;-53
2022/04/27 11:03:38;;;;;;;12.40;4.50;;;25.40;43.20;;;;;;5034560;28;20493;-53
2022/04/27 11:06:13;;;;;;;10.85;4.38;;;25.80;51.10;;;;;;5035042;28;20035;-53
2022/04/27 11:08:39;;;;;;;8.23;4.35;;;25.90;51.80;;;;;;5034228;28;20029;-53
2022/04/27 11:11:06;;;;;;;19.42;5.32;;;25.90;52.50;;;;;;5034265;28;20036;-52
2022/04/27 11:13:34;;;;;;;9.63;4.82;;;26.40;54.60;;;;;;5033873;28;20034;-53
2022/04/27 11:16:10;;;;;;;17.58;5.05;;;26.40;52.10;;;;;;5033333;28;20045;-53
2022/04/27 11:18:58;;;;;;;10.65;4.35;;;26.60;51.60;;;;;;5034273;28;20075;-53
2022/04/27 11:21:28;;;;;;;13.25;4.18;;;26.40;50.80;;;;;;5028347;28;20026;-53
2022/04/27 11:23:55;;;;;;;7.28;3.28;;;25.90;53.00;;;;;;5018867;28;20034;-53
2022/04/27 11:26:21;;;;;;;24.95;4.45;;;25.40;54.70;;;;;;5014150;28;20523;-52
2022/04/27 11:28:48;;;;;;;13.55;4.90;;;25.00;59.50;;;;;;5019111;28;20038;-52
2022/04/27 11:31:15;;;;;;;11.63;4.10;;;24.80;56.70;;;;;;5032675;28;20033;-52
2022/04/27 11:33:41;;;;;;;12.88;4.70;;;24.50;61.80;;;;;;5034512;28;20060;-52
2022/04/27 11:36:19;;;;;;;13.15;4.25;;;24.30;62.90;;;;;;5033601;28;20021;-52
2022/04/27 11:38:46;;;;;;;17.90;4.60;;;24.10;65.30;;;;;;5014678;28;20026;-52
2022/04/27 11:41:19;;;;;;;14.80;4.43;;;24.00;64.70;;;;;;5014307;28;20029;-52
2022/04/27 11:43:50;;;;;;;6.13;3.30;;;23.80;70.50;;;;;;5029042;28;20043;-52
2022/04/27 11:46:16;;;;;;;5.93;3.67;;;23.60;65.30;;;;;;5030287;28;20030;-52
2022/04/27 11:48:50;;;;;;;9.07;4.30;;;23.40;67.10;;;;;;5026549;28;20025;-52
2022/04/27 11:51:17;;;;;;;11.95;4.43;;;23.30;66.60;;;;;;5024091;28;20478;-52
2022/04/27 11:53:48;;;;;;;6.82;4.07;;;22.90;75.70;;;;;;5022631;28;20029;-52
2022/04/27 11:56:15;;;;;;;30.70;7.93;;;22.30;87.70;;;;;;5024502;28;20099;-53
2022/04/27 11:58:44;;;;;;;37.08;10.18;;;21.80;99.90;;;;;;5024093;28;20037;-53
2022/04/27 12:01:10;;;;;;;22.33;8.15;;;20.20;99.90;;;;;;5032391;28;20029;-53
2022/04/27 12:03:42;;;;;;;26.85;10.05;;;20.10;99.90;;;;;;5032421;28;20105;-53
2022/04/27 12:06:09;;;;;;;25.73;9.52;;;20.50;99.90;;;;;;5032685;28;20033;-53
2022/04/27 12:08:41;;;;;;;22.55;8.57;;;20.40;99.90;;;;;;5032539;28;20619;-53
2022/04/27 12:11:17;;;;;;;22.98;9.98;;;20.70;99.90;;;;;;5033489;28;20040;-53
2022/04/27 12:13:43;;;;;;;22.77;9.65;;;21.30;99.90;;;;;;5025665;28;20080;-53
2022/04/27 12:16:10;;;;;;;23.02;9.27;;;22.00;99.90;;;;;;5021882;28;20451;-53
2022/04/27 12:18:49;;;;;;;23.08;9.32;;;22.30;99.90;;;;;;5020091;28;20033;-53
2022/04/27 12:21:27;;;;;;;20.80;9.02;;;22.40;99.90;;;;;;5036778;28;20395;-53
2022/04/27 12:23:56;;;;;;;16.33;8.43;;;21.90;99.90;;;;;;5036299;28;20032;-53
2022/04/27 12:26:26;;;;;;;15.48;9.52;;;21.70;99.90;;;;;;5036527;28;20116;-53
2022/04/27 12:28:52;;;;;;;25.88;12.38;;;21.40;99.90;;;;;;5031318;28;20056;-53
2022/04/27 12:31:20;;;;;;;17.08;8.63;;;21.50;99.90;;;;;;5027474;28;20033;-53
2022/04/27 12:33:50;;;;;;;13.13;7.47;;;21.90;99.90;;;;;;5030691;28;20089;-53
2022/04/27 12:39:22;;;;;;;15.13;7.65;;;22.40;99.90;;;;;;5036704;28;20022;-53
2022/04/27 12:41:50;;;;;;;12.02;6.65;;;22.40;99.90;;;;;;5036517;28;20445;-53
2022/04/27 12:44:17;;;;;;;15.80;8.65;;;22.10;99.90;;;;;;5036729;28;20379;-53
2022/04/27 12:47:08;;;;;;;12.38;6.72;;;21.90;99.90;;;;;;5035908;28;20410;-53
2022/04/27 12:49:43;;;;;;;12.63;8.27;;;21.80;99.90;;;;;;5032964;28;20037;-53
2022/04/27 12:52:33;;;;;;;9.15;6.60;;;21.40;99.90;;;;;;5034076;28;20029;-53
2022/04/27 12:55:08;;;;;;;18.75;8.68;;;20.90;99.90;;;;;;5034251;28;20033;-53
2022/04/27 12:57:53;;;;;;;10.93;7.57;;;20.60;99.90;;;;;;5033295;28;20389;-53
2022/04/27 13:00:42;;;;;;;10.85;6.68;;;20.40;99.90;;;;;;5035684;28;20033;-53
2022/04/27 13:03:09;;;;;;;20.73;8.68;;;20.00;99.90;;;;;;5037172;28;20381;-53
2022/04/27 13:05:42;;;;;;;23.33;11.23;;;19.80;99.90;;;;;;5036358;28;20128;-53
2022/04/27 13:08:10;;;;;;;26.80;9.88;;;19.50;99.90;;;;;;5036831;28;20533;-52
2022/04/27 13:13:22;;;;;;;12.55;7.45;;;19.30;99.90;;;;;;5035940;28;20120;-52
2022/04/27 13:15:49;;;;;;;12.85;7.65;;;19.00;99.90;;;;;;5034945;28;20138;-53